Nautilus Survey — LIXR — position and weather

sailwx.info

Track history (hours):
 
Tides and Currents Weather Stations Pressure Air Temp Water Temp Dewpoint Dewpoint Depression Visibility Wind Speed Wind Dir Waves Ship Positions

Nautilus Survey

Last reported at 2015-Jun-18 17:06 UTC. Time now 2015-Jul-08 06:30 UTC.
Position N 66°24' E 012°59'.
Warning: this ship's position is 19 days out of date.

Length 22 m; draft 2 m.

Type: Dredging. MMSI: 259464000.

Date/timePositionNaut miles runAvg speedWind from/ knotsBaromVisibWave heightAir tempDewpointWater temp
2015-Jun-18 17:06N 66°24' E 012°59'6 7.7
2015-Jun-18 16:16N 66°31' E 013°00'2 2.1
2015-Jun-18 15:32N 66°29' E 012°58'2 2.1
2015-Jun-18 14:27N 66°29' E 013°03'2 2.2
2015-Jun-18 13:26N 66°28' E 013°09'2 2.1
2015-Jun-18 12:29N 66°29' E 013°05'1 1.5
2015-Jun-18 11:29N 66°29' E 013°01'1 1.2
2015-Jun-18 10:25N 66°30' E 013°04'2 2.4
2015-Jun-18 09:29N 66°30' E 012°59'2 1.8
2015-Jun-18 08:31N 66°29' E 013°02'2 0.8
2015-Jun-18 06:31N 66°31' E 012°59'8 0.2
2015-Jun-16 18:06N 66°23' E 012°58'  
2015-Jun-12 15:27N 66°08' E 012°55'7 0.1
2015-Jun-10 15:03N 66°13' E 012°41'5 9.3
2015-Jun-10 14:31N 66°13' E 012°29'2 0.6
2015-Jun-10 10:19N 66°14' E 012°34'11 5.1
2015-Jun-10 08:12N 66°04' E 012°39'  
Track history (hours):
 
Tides and Currents Weather Stations Pressure Air Temp Water Temp Dewpoint Dewpoint Depression Visibility Wind Speed Wind Dir Waves Ship Positions

Nautilus Survey

Last reported at 2015-Jun-18 17:06 UTC. Time now 2015-Jul-08 06:30 UTC.
Position N 66°24' E 012°59'.
Warning: this ship's position is 19 days out of date.

Length 22 m; draft 2 m.

Type: Dredging. MMSI: 259464000.

Date/timePositionNaut miles runAvg speedWind from/ knotsBaromVisibWave heightAir tempDewpointWater temp
2015-Jun-18 17:06N 66°24' E 012°59'6 7.7
2015-Jun-18 16:16N 66°31' E 013°00'2 2.1
2015-Jun-18 15:32N 66°29' E 012°58'2 2.1
2015-Jun-18 14:27N 66°29' E 013°03'2 2.2
2015-Jun-18 13:26N 66°28' E 013°09'2 2.1
2015-Jun-18 12:29N 66°29' E 013°05'1 1.5
2015-Jun-18 11:29N 66°29' E 013°01'1 1.2
2015-Jun-18 10:25N 66°30' E 013°04'2 2.4
2015-Jun-18 09:29N 66°30' E 012°59'2 1.8
2015-Jun-18 08:31N 66°29' E 013°02'2 0.8
2015-Jun-18 06:31N 66°31' E 012°59'8 0.2
2015-Jun-16 18:06N 66°23' E 012°58'  
2015-Jun-12 15:27N 66°08' E 012°55'7 0.1
2015-Jun-10 15:03N 66°13' E 012°41'5 9.3
2015-Jun-10 14:31N 66°13' E 012°29'2 0.6
2015-Jun-10 10:19N 66°14' E 012°34'11 5.1
2015-Jun-10 08:12N 66°04' E 012°39'  

Dump ship's entire track history